ドバイ の空港の天気 - METARとTAF

ドバイ国際空港 ( OMDB / DXB ) - アラブ首長国連邦 ドバイ
飛行場実況気象(Metar)
観測時間11/15 21:00 GST (11/15 17:00 UTC)
風向・風速東 5m/s
視程10km以上
天気現象
なし
気温30℃
湿度27%
気圧1015hPa
METAROMDB 151700Z 09009KT 060V120 CAVOK 30/09 Q1015 NOSIG
過去の天気等 Google飛行場航空写真 Wunderground天気予報

過去48時間のMETAR

飛行場予報(TAF)
発表時間: 11/15 14:55 GST (11/15 10:55 UTC)
予報対象時間: 15日16時 GST ~ 16日22時 GST
風向・風速北 6m/s
視程8000m
なし
15日17時 GST ~ 15日19時 GST に徐々に
風向・風速東 4m/s
16日8時 GST ~ 16日10時 GST に徐々に
風向・風速南南東 5m/s
16日13時 GST ~ 16日15時 GST に徐々に
風向・風速北北西 6m/s
16日19時 GST ~ 16日21時 GST に徐々に
風向・風速東南東 3m/s
TAF OMDB 151055Z 1512/1618 35012KT 8000 NSC
BECMG 1513/1515 08007KT
BECMG 1604/1606 16010KT
BECMG 1609/1611 34012KT
BECMG 1615/1617 12005KT